Time,TemperatureF,DewpointF,PressureIn,WindDirection,WindDirectionDegrees,WindSpeedMPH,WindSpeedGustMPH,Humidity,HourlyPrecipIn,Conditions,Clouds,dailyrainin,SoftwareType,DateUTC
2013-08-11 00:01:00,61.1,53.0,30.06,NNW,333,0.0,0.0,74,0.00,,,0.00,weatherlink.com 1.10,2013-08-11 04:01:00,
2013-08-11 00:16:00,60.7,53.0,30.06,NNW,333,0.0,0.0,76,0.00,,,0.00,weatherlink.com 1.10,2013-08-11 04:16:00,
2013-08-11 00:32:00,60.1,51.0,30.06,NNW,333,0.0,0.0,73,0.00,,,0.00,weatherlink.com 1.10,2013-08-11 04:32:00,
2013-08-11 00:47:00,59.5,51.0,30.06,NNW,333,0.0,0.0,74,0.00,,,0.00,weatherlink.com 1.10,2013-08-11 04:47:00,
2013-08-11 01:02:00,59.1,51.0,30.06,NNW,333,0.0,0.0,74,0.00,,,0.00,weatherlink.com 1.10,2013-08-11 05:02:00,
2013-08-11 01:17:00,58.7,50.0,30.06,NNW,333,0.0,0.0,73,0.00,,,0.00,weatherlink.com 1.10,2013-08-11 05:17:00,
2013-08-11 01:33:00,58.3,50.0,30.06,NNW,333,0.0,0.0,75,0.00,,,0.00,weatherlink.com 1.10,2013-08-11 05:33:00,
2013-08-11 01:48:00,57.9,51.0,30.07,NNW,333,0.0,0.0,77,0.00,,,0.00,weatherlink.com 1.10,2013-08-11 05:48:00,
2013-08-11 02:04:00,57.7,51.0,30.07,NNW,333,0.0,0.0,78,0.00,,,0.00,weatherlink.com 1.10,2013-08-11 06:04:00,
2013-08-11 02:34:00,57.2,51.0,30.08,NNW,333,0.0,0.0,79,0.00,,,0.00,weatherlink.com 1.10,2013-08-11 06:34:00,
2013-08-11 03:05:00,56.9,50.0,30.08,NNW,333,0.0,0.0,78,0.00,,,0.00,weatherlink.com 1.10,2013-08-11 07:05:00,
2013-08-11 03:20:00,56.6,50.0,30.09,NNW,333,0.0,0.0,78,0.00,,,0.00,weatherlink.com 1.10,2013-08-11 07:20:00,
2013-08-11 03:35:00,56.3,50.0,30.08,NNW,333,0.0,0.0,79,0.00,,,0.00,weatherlink.com 1.10,2013-08-11 07:35:00,
2013-08-11 03:52:00,55.8,49.0,30.09,NNW,333,0.0,0.0,79,0.00,,,0.00,weatherlink.com 1.10,2013-08-11 07:52:00,
2013-08-11 04:07:00,55.5,49.0,30.09,NNW,333,0.0,0.0,80,0.00,,,0.00,weatherlink.com 1.10,2013-08-11 08:07:00,
2013-08-11 04:37:00,54.9,49.0,30.09,NNW,333,0.0,0.0,79,0.00,,,0.00,weatherlink.com 1.10,2013-08-11 08:37:00,
2013-08-11 04:54:00,55.0,48.0,30.10,NNW,344,0.0,0.0,78,0.00,,,0.00,weatherlink.com 1.10,2013-08-11 08:54:00,
2013-08-11 05:08:00,55.5,49.0,30.10,NW,321,0.0,0.0,79,0.00,,,0.00,weatherlink.com 1.10,2013-08-11 09:08:00,
2013-08-11 05:54:00,54.9,49.0,30.11,NW,309,0.0,0.0,80,0.00,,,0.00,weatherlink.com 1.10,2013-08-11 09:54:00,
2013-08-11 06:10:00,54.9,49.0,30.11,NW,308,0.0,0.0,80,0.00,,,0.00,weatherlink.com 1.10,2013-08-11 10:10:00,
2013-08-11 06:25:00,54.8,49.0,30.12,NW,307,0.0,0.0,80,0.00,,,0.00,weatherlink.com 1.10,2013-08-11 10:25:00,
2013-08-11 06:40:00,54.8,49.0,30.12,NW,308,0.0,0.0,81,0.00,,,0.00,weatherlink.com 1.10,2013-08-11 10:40:00,
2013-08-11 06:55:00,54.9,50.0,30.12,NW,309,0.0,0.0,82,0.00,,,0.00,weatherlink.com 1.10,2013-08-11 10:55:00,
2013-08-11 07:10:00,55.3,50.0,30.12,NW,309,0.0,0.0,82,0.00,,,0.00,weatherlink.com 1.10,2013-08-11 11:10:00,
2013-08-11 07:25:00,55.9,51.0,30.12,NW,308,0.0,0.0,83,0.00,,,0.00,weatherlink.com 1.10,2013-08-11 11:25:00,
2013-08-11 07:42:00,56.8,51.0,30.12,NW,319,0.0,0.0,82,0.00,,,0.00,weatherlink.com 1.10,2013-08-11 11:42:00,
2013-08-11 07:57:00,58.3,52.0,30.12,NNW,340,0.0,0.0,79,0.00,,,0.00,weatherlink.com 1.10,2013-08-11 11:57:00,
2013-08-11 08:28:00,60.3,52.0,30.13,ENE,76,0.0,0.0,75,0.00,,,0.00,weatherlink.com 1.10,2013-08-11 12:28:00,
2013-08-11 08:44:00,61.3,53.0,30.13,NNW,333,0.0,0.0,74,0.00,,,0.00,weatherlink.com 1.10,2013-08-11 12:44:00,
2013-08-11 08:59:00,62.8,53.0,30.13,North,5,0.0,0.0,71,0.00,,,0.00,weatherlink.com 1.10,2013-08-11 12:59:00,
2013-08-11 09:28:00,65.6,54.0,30.13,NE,34,0.0,0.0,66,0.00,,,0.00,weatherlink.com 1.10,2013-08-11 13:28:00,
2013-08-11 09:44:00,68.7,55.0,30.13,NW,317,1.0,6.0,63,0.00,,,0.00,weatherlink.com 1.10,2013-08-11 13:44:00,
2013-08-11 10:00:00,71.6,56.0,30.12,East,91,1.0,2.0,58,0.00,,,0.00,weatherlink.com 1.10,2013-08-11 14:00:00,
2013-08-11 10:15:00,73.0,56.0,30.12,ESE,111,3.0,4.0,56,0.00,,,0.00,weatherlink.com 1.10,2013-08-11 14:15:00,
2013-08-11 10:30:00,74.5,56.0,30.12,ESE,107,1.0,5.0,53,0.00,,,0.00,weatherlink.com 1.10,2013-08-11 14:30:00,
2013-08-11 10:45:00,75.1,55.0,30.13,NE,52,0.0,3.0,50,0.00,,,0.00,weatherlink.com 1.10,2013-08-11 14:45:00,
2013-08-11 11:01:00,75.8,53.0,30.12,NNE,26,1.0,7.0,45,0.00,,,0.00,weatherlink.com 1.10,2013-08-11 15:01:00,
2013-08-11 11:17:00,76.2,54.0,30.12,SE,137,0.0,3.0,46,0.00,,,0.00,weatherlink.com 1.10,2013-08-11 15:17:00,
2013-08-11 11:32:00,76.8,56.0,30.12,WNW,288,0.0,2.0,48,0.00,,,0.00,weatherlink.com 1.10,2013-08-11 15:32:00,
2013-08-11 11:47:00,77.7,60.0,30.12,SE,126,0.0,3.0,54,0.00,,,0.00,weatherlink.com 1.10,2013-08-11 15:47:00,
2013-08-11 12:02:00,78.6,58.0,30.11,WNW,290,0.0,1.0,49,0.00,,,0.00,weatherlink.com 1.10,2013-08-11 16:02:00,
2013-08-11 12:19:00,78.9,57.0,30.11,NNW,333,2.0,3.0,47,0.00,,,0.00,weatherlink.com 1.10,2013-08-11 16:19:00,
2013-08-11 12:33:00,79.3,57.0,30.10,NNW,340,0.0,2.0,47,0.00,,,0.00,weatherlink.com 1.10,2013-08-11 16:33:00,
2013-08-11 13:03:00,80.6,57.0,30.10,WSW,246,0.0,1.0,44,0.00,,,0.00,weatherlink.com 1.10,2013-08-11 17:03:00,
2013-08-11 13:35:00,80.8,57.0,30.09,SE,132,0.0,1.0,45,0.00,,,0.00,weatherlink.com 1.10,2013-08-11 17:35:00,
2013-08-11 13:50:00,82.1,56.0,30.09,NNW,329,0.0,3.0,41,0.00,,,0.00,weatherlink.com 1.10,2013-08-11 17:50:00,
2013-08-11 14:05:00,81.4,55.0,30.09,SSW,198,0.0,1.0,41,0.00,,,0.00,weatherlink.com 1.10,2013-08-11 18:05:00,
2013-08-11 14:20:00,82.0,59.0,30.08,NNW,336,0.0,3.0,45,0.00,,,0.00,weatherlink.com 1.10,2013-08-11 18:20:00,
2013-08-11 14:37:00,83.3,58.0,30.07,NNW,331,0.0,1.0,43,0.00,,,0.00,weatherlink.com 1.10,2013-08-11 18:37:00,
2013-08-11 14:52:00,83.4,57.0,30.07,SW,217,0.0,1.0,41,0.00,,,0.00,weatherlink.com 1.10,2013-08-11 18:52:00,
2013-08-11 15:07:00,81.6,58.0,30.07,WNW,300,0.0,1.0,44,0.00,,,0.00,weatherlink.com 1.10,2013-08-11 19:07:00,
2013-08-11 15:22:00,78.0,59.0,30.07,WNW,294,0.0,1.0,52,0.00,,,0.00,weatherlink.com 1.10,2013-08-11 19:22:00,
2013-08-11 15:53:00,81.6,59.0,30.06,West,281,1.0,2.0,47,0.00,,,0.00,weatherlink.com 1.10,2013-08-11 19:53:00,
2013-08-11 16:09:00,82.1,57.0,30.05,ESE,121,0.0,2.0,43,0.00,,,0.00,weatherlink.com 1.10,2013-08-11 20:09:00,
2013-08-11 16:24:00,81.8,58.0,30.05,NNW,332,0.0,1.0,44,0.00,,,0.00,weatherlink.com 1.10,2013-08-11 20:24:00,
2013-08-11 16:38:00,80.1,57.0,30.05,SE,133,0.0,1.0,46,0.00,,,0.00,weatherlink.com 1.10,2013-08-11 20:38:00,
2013-08-11 16:54:00,78.4,58.0,30.05,West,261,0.0,1.0,50,0.00,,,0.00,weatherlink.com 1.10,2013-08-11 20:54:00,
2013-08-11 17:10:00,77.2,58.0,30.05,WSW,249,0.0,4.0,52,0.00,,,0.00,weatherlink.com 1.10,2013-08-11 21:10:00,
2013-08-11 17:25:00,76.4,58.0,30.05,NNW,329,1.0,1.0,54,0.00,,,0.00,weatherlink.com 1.10,2013-08-11 21:25:00,
2013-08-11 17:55:00,74.7,60.0,30.04,SW,229,0.0,1.0,61,0.00,,,0.00,weatherlink.com 1.10,2013-08-11 21:55:00,
2013-08-11 18:10:00,73.7,59.0,30.04,North,360,0.0,1.0,61,0.00,,,0.00,weatherlink.com 1.10,2013-08-11 22:10:00,
2013-08-11 18:25:00,73.5,59.0,30.04,WSW,257,0.0,1.0,60,0.00,,,0.00,weatherlink.com 1.10,2013-08-11 22:25:00,
2013-08-11 18:41:00,73.0,59.0,30.04,SW,236,0.0,3.0,62,0.00,,,0.00,weatherlink.com 1.10,2013-08-11 22:41:00,
2013-08-11 18:57:00,72.3,59.0,30.04,SW,236,0.0,0.0,63,0.00,,,0.00,weatherlink.com 1.10,2013-08-11 22:57:00,
2013-08-11 19:12:00,71.8,59.0,30.04,SW,236,0.0,0.0,65,0.00,,,0.00,weatherlink.com 1.10,2013-08-11 23:12:00,
2013-08-11 19:58:00,69.6,61.0,30.04,SW,236,0.0,0.0,73,0.00,,,0.00,weatherlink.com 1.10,2013-08-11 23:58:00,
2013-08-11 20:28:00,67.8,60.0,30.05,SW,236,0.0,0.0,75,0.00,,,0.00,weatherlink.com 1.10,2013-08-12 00:28:00,
2013-08-11 20:43:00,67.1,59.0,30.05,SW,236,0.0,0.0,76,0.00,,,0.00,weatherlink.com 1.10,2013-08-12 00:43:00,
2013-08-11 21:00:00,66.5,59.0,30.06,SW,236,0.0,0.0,77,0.00,,,0.00,weatherlink.com 1.10,2013-08-12 01:00:00,
2013-08-11 21:30:00,65.7,60.0,30.07,SW,236,0.0,0.0,82,0.00,,,0.00,weatherlink.com 1.10,2013-08-12 01:30:00,
2013-08-11 21:45:00,65.4,60.0,30.07,SW,236,0.0,0.0,83,0.00,,,0.00,weatherlink.com 1.10,2013-08-12 01:45:00,
2013-08-11 22:00:00,64.9,60.0,30.06,SW,236,0.0,0.0,83,0.00,,,0.00,weatherlink.com 1.10,2013-08-12 02:00:00,
2013-08-11 22:17:00,64.4,60.0,30.07,SW,236,0.0,0.0,84,0.00,,,0.00,weatherlink.com 1.10,2013-08-12 02:17:00,
2013-08-11 22:31:00,64.1,59.0,30.06,SW,236,0.0,0.0,84,0.00,,,0.00,weatherlink.com 1.10,2013-08-12 02:31:00,
2013-08-11 22:46:00,64.0,60.0,30.06,SW,236,0.0,0.0,85,0.00,,,0.00,weatherlink.com 1.10,2013-08-12 02:46:00,
2013-08-11 23:02:00,64.0,59.0,30.06,SW,236,0.0,0.0,84,0.00,,,0.00,weatherlink.com 1.10,2013-08-12 03:02:00,
2013-08-11 23:17:00,63.7,59.0,30.06,SW,236,0.0,0.0,84,0.00,,,0.00,weatherlink.com 1.10,2013-08-12 03:17:00,
2013-08-11 23:34:00,63.4,58.0,30.06,SW,236,0.0,0.0,83,0.00,,,0.00,weatherlink.com 1.10,2013-08-12 03:34:00,
2013-08-11 23:49:00,63.2,58.0,30.06,SW,236,0.0,0.0,83,0.00,,,0.00,weatherlink.com 1.10,2013-08-12 03:49:00,